»·PEaware :: N42PD KAVQ-KBXK

N42PD :: KAVQ-KBXK

FLIGHT INFORMATION

Flight Status: Arrived
Operator: Privately registered:
United States
More flights under this callsign
Pilot: Anonymous 13704 (13704)
Aircraft: CIRRUS SR-22 TURBO
(S22T)
More flights by this aircraft type
Origin: KAVQ Marana Northwest Regl
United States
Destination: KBXK Buckeye Mun
United States
More flights between these airports :: More routes between these airports
Route: DCT
File this flight plan on PilotEdge
Remarks: Alphabet Challenge Leg #1
Altitude:
(Current/Filed)
8,500ft
Speed:
(Current/Filed)
150kts
Departed: 28-Sep-20 03:23 PM
Arrived: 28-Sep-20 04:06 PM
Distance/Time
Traveled:
96nm/0:43
Distance/Time
To Go:
Arrived

Flight Plot

Page will automatically refresh every two minutes.

Flight plan parsing failed; only flown route is shown


Map Options




Map Legend


Flown Route
Filed Route
Departure Airport
Arrival Airport
Navaid (VOR, NDB)
Fix

Horizontal Profiles

Position Reports

Time Latitude Longitude Heading Altitude Ground
Speed
28-Sep-20 15:12 32.405668 -111.218653 126 2024ft 0kts
28-Sep-20 15:13 32.405668 -111.218653 126 2024ft 0kts
28-Sep-20 15:14 32.405668 -111.218653 126 2024ft 0kts
28-Sep-20 15:15 32.405668 -111.218653 126 2024ft 0kts
28-Sep-20 15:16 32.405687 -111.218492 58 2025ft 0kts
28-Sep-20 15:17 32.406538 -111.217466 46 2025ft 5kts
28-Sep-20 15:18 32.406638 -111.216272 139 2026ft 0kts
28-Sep-20 15:19 32.405311 -111.213848 139 2027ft 19kts
28-Sep-20 15:20 32.403640 -111.211292 57 2030ft 0kts
28-Sep-20 15:21 32.404402 -111.210860 330 2030ft 22kts
28-Sep-20 15:22 32.421157 -111.233151 308 2753ft 111kts
28-Sep-20 15:23 32.443118 -111.263160 312 3594ft 127kts
28-Sep-20 15:24 32.468113 -111.294070 316 4495ft 129kts
28-Sep-20 15:26 32.495453 -111.322790 324 5394ft 131kts
28-Sep-20 15:27 32.523311 -111.348222 321 6243ft 134kts
28-Sep-20 15:28 32.552609 -111.376675 320 7139ft 136kts
28-Sep-20 15:29 32.582112 -111.406100 320 8032ft 139kts
28-Sep-20 15:30 32.613322 -111.437556 320 8512ft 162kts
28-Sep-20 15:31 32.649819 -111.474621 320 8497ft 176kts
28-Sep-20 15:32 32.687472 -111.512976 320 8494ft 177kts
28-Sep-20 15:33 32.725357 -111.551628 320 8491ft 177kts
28-Sep-20 15:34 32.762725 -111.589753 321 8500ft 174kts
28-Sep-20 15:35 32.799770 -111.627622 321 8486ft 174kts
28-Sep-20 15:36 32.826154 -111.674478 288 8485ft 177kts
28-Sep-20 15:37 32.840592 -111.731101 288 8483ft 177kts
28-Sep-20 15:38 32.855027 -111.787946 288 8483ft 177kts
28-Sep-20 15:39 32.869401 -111.844697 288 8483ft 177kts
28-Sep-20 15:40 32.883733 -111.901413 288 8483ft 177kts
28-Sep-20 15:41 32.887231 -111.960811 272 8483ft 179kts
28-Sep-20 15:41 32.888145 -112.010760 275 8482ft 179kts
28-Sep-20 15:42 32.894763 -112.069965 279 8483ft 178kts
28-Sep-20 15:44 32.902111 -112.139128 278 8472ft 179kts
28-Sep-20 15:44 32.907244 -112.188694 279 8450ft 179kts
28-Sep-20 15:45 32.913362 -112.248037 279 8429ft 179kts
28-Sep-20 15:47 32.920393 -112.317233 279 8406ft 178kts
28-Sep-20 15:47 32.925404 -112.366579 278 8402ft 178kts
28-Sep-20 15:48 32.931376 -112.425769 279 8402ft 177kts
28-Sep-20 15:49 32.937298 -112.484704 279 8402ft 177kts
28-Sep-20 15:50 32.943198 -112.543824 279 8402ft 177kts
28-Sep-20 15:51 32.949070 -112.602734 279 8402ft 177kts
28-Sep-20 15:52 32.961682 -112.657590 335 8392ft 171kts
28-Sep-20 15:53 33.005097 -112.683158 333 8121ft 184kts
28-Sep-20 15:54 33.053023 -112.712903 333 7128ft 195kts
28-Sep-20 15:55 33.103900 -112.734310 343 6104ft 194kts
28-Sep-20 15:56 33.157332 -112.748601 347 5091ft 198kts
28-Sep-20 15:57 33.212004 -112.762117 346 4086ft 199kts
28-Sep-20 15:58 33.266467 -112.776107 347 3075ft 198kts
28-Sep-20 15:59 33.320354 -112.790066 347 2064ft 193kts
28-Sep-20 16:00 33.369166 -112.786306 22 1975ft 171kts
28-Sep-20 16:01 33.406927 -112.756919 21 1975ft 160kts
28-Sep-20 16:02 33.419425 -112.721969 103 1984ft 124kts
28-Sep-20 16:03 33.435093 -112.692618 356 1655ft 102kts
28-Sep-20 16:04 33.437684 -112.685342 189 1275ft 83kts
28-Sep-20 16:05 33.420812 -112.686174 60 1006ft 0kts
28-Sep-20 16:06 33.420469 -112.683725 134 1007ft 0kts
28-Sep-20 16:07 33.420469 -112.683725 134 1007ft 0kts
28-Sep-20 16:08 33.420469 -112.683725 134 1007ft 0kts
28-Sep-20 16:09 33.420469 -112.683725 134 1007ft 0kts
28-Sep-20 16:10 33.420469 -112.683725 134 1007ft 0kts
28-Sep-20 16:11 33.420469 -112.683725 134 1007ft 0kts
28-Sep-20 16:12 33.420469 -112.683725 134 1007ft 0kts
28-Sep-20 16:13 33.420469 -112.683725 134 1007ft 0kts
28-Sep-20 16:14 33.420469 -112.683725 134 1007ft 0kts

Navigation Log

Ident Type
Flight plan parsing failed, navigation log unavailable